Time,TemperatureF,DewpointF,PressureIn,WindDirection,WindDirectionDegrees,WindSpeedMPH,WindSpeedGustMPH,Humidity,HourlyPrecipIn,Conditions,Clouds,dailyrainin,SoftwareType,DateUTC
2013-07-24 00:00:00,80.0,-99.9,29.80,SW,230,15.0,21.0,-999,-99.99,,,-99.99,,2013-07-24 04:00:00,
2013-07-24 00:44:00,80.0,-99.9,29.80,SW,230,15.0,21.0,-999,-99.99,,,-99.99,,2013-07-24 04:44:00,
2013-07-24 00:53:00,80.0,-99.9,29.80,SW,230,15.0,21.0,-999,-99.99,,,-99.99,,2013-07-24 04:53:00,
2013-07-24 01:00:00,79.0,-99.9,29.79,SW,230,10.0,15.0,-999,-99.99,,,-99.99,,2013-07-24 05:00:00,
2013-07-24 01:33:00,79.0,-99.9,29.79,SW,230,10.0,15.0,-999,-99.99,,,-99.99,,2013-07-24 05:33:00,
2013-07-24 01:43:00,79.0,-99.9,29.79,SW,230,10.0,15.0,-999,-99.99,,,-99.99,,2013-07-24 05:43:00,
2013-07-24 01:52:00,79.0,-99.9,29.79,SW,230,10.0,15.0,-999,-99.99,,,-99.99,,2013-07-24 05:52:00,
2013-07-24 02:00:00,79.0,-99.9,29.77,SW,230,13.0,16.0,-999,-99.99,,,-99.99,,2013-07-24 06:00:00,
2013-07-24 02:43:00,79.0,-99.9,29.77,SW,230,13.0,16.0,-999,-99.99,,,-99.99,,2013-07-24 06:43:00,
2013-07-24 02:53:00,79.0,-99.9,29.77,SW,230,13.0,16.0,-999,-99.99,,,-99.99,,2013-07-24 06:53:00,
2013-07-24 03:00:00,79.0,-99.9,29.76,WSW,240,13.0,16.0,-999,-99.99,,,-99.99,,2013-07-24 07:00:00,
2013-07-24 03:43:00,79.0,-99.9,29.76,WSW,240,13.0,16.0,-999,-99.99,,,-99.99,,2013-07-24 07:43:00,
2013-07-24 03:53:00,79.0,-99.9,29.76,WSW,240,13.0,16.0,-999,-99.99,,,-99.99,,2013-07-24 07:53:00,
2013-07-24 04:00:00,79.0,-99.9,29.75,WSW,240,13.0,16.0,-999,-99.99,,,-99.99,,2013-07-24 08:00:00,
2013-07-24 04:32:00,79.0,-99.9,29.75,WSW,240,13.0,16.0,-999,-99.99,,,-99.99,,2013-07-24 08:32:00,
2013-07-24 04:43:00,79.0,-99.9,29.75,WSW,240,13.0,16.0,-999,-99.99,,,-99.99,,2013-07-24 08:43:00,
2013-07-24 04:52:00,79.0,-99.9,29.75,WSW,240,13.0,16.0,-999,-99.99,,,-99.99,,2013-07-24 08:52:00,
2013-07-24 06:00:00,78.0,-99.9,29.76,WSW,250,10.0,13.0,-999,-99.99,,,-99.99,,2013-07-24 10:00:00,
2013-07-24 06:44:00,78.0,-99.9,29.76,WSW,250,10.0,13.0,-999,-99.99,,,-99.99,,2013-07-24 10:44:00,
2013-07-24 06:53:00,78.0,-99.9,29.76,WSW,250,10.0,13.0,-999,-99.99,,,-99.99,,2013-07-24 10:53:00,
2013-07-24 07:00:00,79.0,-99.9,29.77,WSW,250,8.0,12.0,-999,-99.99,,,-99.99,,2013-07-24 11:00:00,
2013-07-24 07:44:00,79.0,-99.9,29.77,WSW,250,8.0,12.0,-999,-99.99,,,-99.99,,2013-07-24 11:44:00,
2013-07-24 07:52:00,79.0,-99.9,29.77,WSW,250,8.0,12.0,-999,-99.99,,,-99.99,,2013-07-24 11:52:00,
2013-07-24 09:00:00,80.0,-99.9,29.80,WSW,250,10.0,14.0,-999,-99.99,,,-99.99,,2013-07-24 13:00:00,
2013-07-24 09:32:00,80.0,-99.9,29.80,WSW,250,10.0,14.0,-999,-99.99,,,-99.99,,2013-07-24 13:32:00,
2013-07-24 09:43:00,80.0,-99.9,29.80,WSW,250,10.0,14.0,-999,-99.99,,,-99.99,,2013-07-24 13:43:00,
2013-07-24 09:53:00,80.0,-99.9,29.80,WSW,250,10.0,14.0,-999,-99.99,,,-99.99,,2013-07-24 13:53:00,
2013-07-24 10:00:00,80.0,-99.9,29.79,WSW,250,13.0,15.0,-999,-99.99,,,-99.99,,2013-07-24 14:00:00,
2013-07-24 10:32:00,80.0,-99.9,29.79,WSW,250,13.0,15.0,-999,-99.99,,,-99.99,,2013-07-24 14:32:00,
2013-07-24 10:43:00,80.0,-99.9,29.79,WSW,250,13.0,15.0,-999,-99.99,,,-99.99,,2013-07-24 14:43:00,
2013-07-24 10:55:00,80.0,-99.9,29.79,WSW,250,13.0,15.0,-999,-99.99,,,-99.99,,2013-07-24 14:55:00,
2013-07-24 11:00:00,81.0,-99.9,29.81,WSW,240,12.0,15.0,-999,-99.99,,,-99.99,,2013-07-24 15:00:00,
2013-07-24 11:33:00,81.0,-99.9,29.81,WSW,240,12.0,15.0,-999,-99.99,,,-99.99,,2013-07-24 15:33:00,
2013-07-24 11:43:00,81.0,-99.9,29.81,WSW,240,12.0,15.0,-999,-99.99,,,-99.99,,2013-07-24 15:43:00,
2013-07-24 11:53:00,81.0,-99.9,29.81,WSW,240,12.0,15.0,-999,-99.99,,,-99.99,,2013-07-24 15:53:00,
2013-07-24 12:00:00,82.0,-99.9,29.81,WSW,250,9.0,13.0,-999,-99.99,,,-99.99,,2013-07-24 16:00:00,
2013-07-24 12:23:00,82.0,-99.9,29.81,WSW,250,9.0,13.0,-999,-99.99,,,-99.99,,2013-07-24 16:23:00,
2013-07-24 12:33:00,82.0,-99.9,29.81,WSW,250,9.0,13.0,-999,-99.99,,,-99.99,,2013-07-24 16:33:00,
2013-07-24 12:43:00,82.0,-99.9,29.81,WSW,250,9.0,13.0,-999,-99.99,,,-99.99,,2013-07-24 16:43:00,
2013-07-24 12:53:00,82.0,-99.9,29.81,WSW,250,9.0,13.0,-999,-99.99,,,-99.99,,2013-07-24 16:53:00,
2013-07-24 13:00:00,84.0,-99.9,29.80,SSW,210,10.0,13.0,-999,-99.99,,,-99.99,,2013-07-24 17:00:00,
2013-07-24 13:22:00,84.0,-99.9,29.80,SSW,210,10.0,13.0,-999,-99.99,,,-99.99,,2013-07-24 17:22:00,
2013-07-24 13:33:00,84.0,-99.9,29.80,SSW,210,10.0,13.0,-999,-99.99,,,-99.99,,2013-07-24 17:33:00,
2013-07-24 13:43:00,84.0,-99.9,29.80,SSW,210,10.0,13.0,-999,-99.99,,,-99.99,,2013-07-24 17:43:00,
2013-07-24 13:53:00,84.0,-99.9,29.80,SSW,210,10.0,13.0,-999,-99.99,,,-99.99,,2013-07-24 17:53:00,
2013-07-24 14:00:00,83.0,-99.9,29.79,SSW,210,13.0,16.0,-999,-99.99,,,-99.99,,2013-07-24 18:00:00,
2013-07-24 14:33:00,83.0,-99.9,29.79,SSW,210,13.0,16.0,-999,-99.99,,,-99.99,,2013-07-24 18:33:00,
2013-07-24 14:43:00,83.0,-99.9,29.79,SSW,210,13.0,16.0,-999,-99.99,,,-99.99,,2013-07-24 18:43:00,
2013-07-24 14:52:00,83.0,-99.9,29.79,SSW,210,13.0,16.0,-999,-99.99,,,-99.99,,2013-07-24 18:52:00,
2013-07-24 15:00:00,82.0,-99.9,29.79,SSW,210,12.0,14.0,-999,-99.99,,,-99.99,,2013-07-24 19:00:00,
2013-07-24 15:33:00,82.0,-99.9,29.79,SSW,210,12.0,14.0,-999,-99.99,,,-99.99,,2013-07-24 19:33:00,
2013-07-24 15:43:00,82.0,-99.9,29.79,SSW,210,12.0,14.0,-999,-99.99,,,-99.99,,2013-07-24 19:43:00,
2013-07-24 15:53:00,82.0,-99.9,29.79,SSW,210,12.0,14.0,-999,-99.99,,,-99.99,,2013-07-24 19:53:00,
2013-07-24 16:00:00,82.0,-99.9,29.79,SSW,210,14.0,20.0,-999,-99.99,,,-99.99,,2013-07-24 20:00:00,
2013-07-24 16:33:00,82.0,-99.9,29.79,SSW,210,14.0,20.0,-999,-99.99,,,-99.99,,2013-07-24 20:33:00,
2013-07-24 16:43:00,82.0,-99.9,29.79,SSW,210,14.0,20.0,-999,-99.99,,,-99.99,,2013-07-24 20:43:00,
2013-07-24 16:53:00,82.0,-99.9,29.79,SSW,210,14.0,20.0,-999,-99.99,,,-99.99,,2013-07-24 20:53:00,
2013-07-24 17:00:00,81.0,-99.9,29.78,SSW,210,16.0,21.0,-999,-99.99,,,-99.99,,2013-07-24 21:00:00,
2013-07-24 17:32:00,81.0,-99.9,29.78,SSW,210,16.0,21.0,-999,-99.99,,,-99.99,,2013-07-24 21:32:00,
2013-07-24 17:44:00,81.0,-99.9,29.78,SSW,210,16.0,21.0,-999,-99.99,,,-99.99,,2013-07-24 21:44:00,
2013-07-24 17:53:00,81.0,-99.9,29.78,SSW,210,16.0,21.0,-999,-99.99,,,-99.99,,2013-07-24 21:53:00,
2013-07-24 18:00:00,81.0,-99.9,29.78,SSW,200,14.0,17.0,-999,-99.99,,,-99.99,,2013-07-24 22:00:00,
2013-07-24 18:43:00,81.0,-99.9,29.78,SSW,200,14.0,17.0,-999,-99.99,,,-99.99,,2013-07-24 22:43:00,
2013-07-24 18:53:00,81.0,-99.9,29.78,SSW,200,14.0,17.0,-999,-99.99,,,-99.99,,2013-07-24 22:53:00,
2013-07-24 19:00:00,80.0,-99.9,29.79,SSW,200,12.0,15.0,-999,-99.99,,,-99.99,,2013-07-24 23:00:00,
2013-07-24 19:33:00,80.0,-99.9,29.79,SSW,200,12.0,15.0,-999,-99.99,,,-99.99,,2013-07-24 23:33:00,
2013-07-24 19:43:00,80.0,-99.9,29.79,SSW,200,12.0,15.0,-999,-99.99,,,-99.99,,2013-07-24 23:43:00,
2013-07-24 19:52:00,80.0,-99.9,29.79,SSW,200,12.0,15.0,-999,-99.99,,,-99.99,,2013-07-24 23:52:00,
2013-07-24 20:00:00,80.0,-99.9,29.80,SSW,210,14.0,18.0,-999,-99.99,,,-99.99,,2013-07-25 00:00:00,
2013-07-24 20:43:00,80.0,-99.9,29.80,SSW,210,14.0,18.0,-999,-99.99,,,-99.99,,2013-07-25 00:43:00,
2013-07-24 20:53:00,80.0,-99.9,29.80,SSW,210,14.0,18.0,-999,-99.99,,,-99.99,,2013-07-25 00:53:00,
2013-07-24 22:00:00,80.0,-99.9,29.82,SW,220,6.0,10.0,-999,-99.99,,,-99.99,,2013-07-25 02:00:00,
2013-07-24 22:43:00,80.0,-99.9,29.82,SW,220,6.0,10.0,-999,-99.99,,,-99.99,,2013-07-25 02:43:00,
2013-07-24 22:53:00,80.0,-99.9,29.82,SW,220,6.0,10.0,-999,-99.99,,,-99.99,,2013-07-25 02:53:00,
2013-07-24 23:00:00,80.0,-99.9,29.83,SW,220,7.0,9.0,-999,-99.99,,,-99.99,,2013-07-25 03:00:00,
2013-07-24 23:45:00,80.0,-99.9,29.83,SW,220,7.0,9.0,-999,-99.99,,,-99.99,,2013-07-25 03:45:00,
2013-07-24 23:53:00,80.0,-99.9,29.83,SW,220,7.0,9.0,-999,-99.99,,,-99.99,,2013-07-25 03:53:00,